Sluck, Belarus

2:18 PM FET on October 25, 2014 (GMT +0300)
Minsk-2 | Change Station
CLOSE
Current Station
Airport
Location: Minsk In-Min,
Elevation: 669 ft
Nearby Weather Stations

Elev 669 ft 53.88 °N, 28.03 °E | Updated 18 minutes ago

Clear
Clear
34 °F
Feels Like 26 °F
N
9
Wind Variable Wind from SSE

Today
High -- | Low -- °F
--% Chance of Precip.
Yesterday
High -- | Low -- °F
Precip. -- in
7:53 AM 5:52 PM
Waxing Crescent, 3% visible
Pressure 30.57 in
Visibility -9999.0 miles
Clouds
Windchill 26 °F
Dew Point 16 °F
Humidity 48%
Rainfall 0.00 in
Snow Depth Not available.
UV Not available.
Pollen Not available.
Air Quality Not available.
Flu Activity Not available.
METAR UMMS 251100Z 16004MPS 130V220 CAVOK 01/M09 Q1035 R13/CLRD// NOSIG

More Conditions Fewer Conditions

Pressure 30.57 in
Visibility -9999.0 miles
Clouds
Windchill 26 °F
Dew Point 16 °F
Humidity 48%
Rainfall 0.00 in
Snow Depth Not available.
UV Not available.
Pollen Not available.
Air Quality Not available.
Flu Activity Not available.
METAR UMMS 251100Z 16004MPS 130V220 CAVOK 01/M09 Q1035 R13/CLRD// NOSIG

More Conditions Fewer Conditions

10-Day Weather Forecast

Almanac

Astronomy

Oct. 25, 2014 Rise Set
Actual Time 7:53 AM FET 5:52 PM FET
Civil Twilight 7:18 AM FET 6:28 PM FET
Nautical Twilight 6:37 AM FET 7:08 PM FET
Astronomical Twilight 5:57 AM FET 7:48 PM FET
Moon 9:22 AM FET 6:50 PM FET
Length of Visible Light 11h 10m
Length of Day
9h 58m
Tomorrow will be 3m 55s shorter.
Waxing Crescent, 3% of the Moon is Illuminated
Today
Waxing Crescent
Oct 30
First Quarter
Nov 6
Full
Nov 14
Last Quarter
Nov 22
New

Yesterday's Extremes

Country Highs Country Lows

Community

WunderPhotos

Upload Photos

1,764,808 photos uploaded!

Nearby

Snow Depth

Not available.

Earthquake Activity

City Distance Mag. Time & Date
No recent earthquake activity has been reported nearby.
Minimum magnitude displayed is 2.5.

Coastal Water Temperatures

Place Temperature
No Stations Reporting

Nearby Weather Stations